createdAt,value
2023-03-30T00:01:29.421Z,95059.28
2023-03-30T00:03:59.144Z,95061.88
2023-03-30T00:06:27.416Z,95056.22
2023-03-30T00:08:58.258Z,95056.22
2023-03-30T00:11:26.917Z,95063.53
2023-03-30T00:13:55.520Z,95050.63
2023-03-30T00:16:23.580Z,95059.16
2023-03-30T00:18:52.997Z,95055.78
2023-03-30T00:21:21.658Z,95062.16
2023-03-30T00:23:52.336Z,95077.31
2023-03-30T00:26:22.340Z,95078.91
2023-03-30T00:28:50.235Z,95057.59
2023-03-30T00:31:18.376Z,95069.09
2023-03-30T00:33:47.547Z,95050.63
2023-03-30T00:36:16.622Z,95070.88
2023-03-30T00:38:45.751Z,95054.41
2023-03-30T00:41:13.867Z,95066.84
2023-03-30T00:44:00.889Z,95070.22
2023-03-30T00:46:29.590Z,95081.66
2023-03-30T00:49:00.107Z,95061.19
2023-03-30T00:51:29.777Z,95058.53
2023-03-30T00:54:03.272Z,95055.97
2023-03-30T00:56:32.116Z,95042.31
2023-03-30T00:59:03.775Z,95066.25
2023-03-30T01:01:39.153Z,95077.19
2023-03-30T01:04:09.846Z,95069.84
2023-03-30T01:06:40.252Z,95059.78
2023-03-30T01:09:08.713Z,95060.59
2023-03-30T01:11:36.766Z,95044.59
2023-03-30T01:14:09.169Z,95033.16
2023-03-30T01:16:44.221Z,95046.31
2023-03-30T01:19:36.482Z,95058.72
2023-03-30T01:22:34.725Z,95078.63
2023-03-30T01:25:41.581Z,95060.72
2023-03-30T01:28:33.003Z,95046.47
2023-03-30T01:31:25.817Z,95070.78
2023-03-30T01:34:23.620Z,95046.22
2023-03-30T01:37:45.100Z,95052.50
2023-03-30T01:40:15.904Z,95063.63
2023-03-30T01:42:54.221Z,95037.50
2023-03-30T01:45:31.735Z,95049.88
2023-03-30T01:48:07.102Z,95064.69
2023-03-30T01:50:40.237Z,95056.31
2023-03-30T01:53:15.435Z,95064.03
2023-03-30T01:55:48.353Z,95055.06
2023-03-30T01:58:22.683Z,95067.78
2023-03-30T02:00:54.875Z,95066.16
2023-03-30T02:03:28.429Z,95071.53
2023-03-30T02:06:04.054Z,95075.34
2023-03-30T02:08:35.026Z,95058.53
2023-03-30T02:11:06.361Z,95054.50
2023-03-30T02:13:37.183Z,95071.19
2023-03-30T02:16:16.607Z,95064.66
2023-03-30T02:18:45.000Z,95067.81
2023-03-30T02:21:13.177Z,95061.78
2023-03-30T02:23:45.426Z,95070.66
2023-03-30T02:26:15.484Z,95061.97
2023-03-30T02:28:45.218Z,95066.44
2023-03-30T02:31:15.954Z,95088.22
2023-03-30T02:33:59.312Z,95070.88
2023-03-30T02:36:42.156Z,95074.38
2023-03-30T02:39:27.541Z,95086.09
2023-03-30T02:42:34.550Z,95080.94
2023-03-30T02:45:16.450Z,95038.06
2023-03-30T02:47:53.995Z,95092.84
2023-03-30T02:50:32.015Z,95076.06
2023-03-30T02:53:12.361Z,95080.94
2023-03-30T02:55:47.082Z,95072.53
2023-03-30T02:58:22.048Z,95098.25
2023-03-30T03:00:53.787Z,95079.31
2023-03-30T03:03:27.890Z,95076.88
2023-03-30T03:05:56.710Z,95091.75
2023-03-30T03:08:25.852Z,95079.34
2023-03-30T03:10:53.972Z,95092.53
2023-03-30T03:13:24.550Z,95102.16
2023-03-30T03:15:56.237Z,95093.97
2023-03-30T03:18:24.436Z,95092.66
2023-03-30T03:20:52.834Z,95103.66
2023-03-30T03:23:21.245Z,95102.63
2023-03-30T03:25:49.520Z,95108.56
2023-03-30T03:28:17.594Z,95074.00
2023-03-30T03:30:47.110Z,95097.34
2023-03-30T03:33:15.286Z,95103.75
2023-03-30T03:35:45.877Z,95100.63
2023-03-30T03:38:14.063Z,95107.97
2023-03-30T03:40:42.542Z,95094.06
2023-03-30T03:43:10.602Z,95107.66
2023-03-30T03:45:38.598Z,95104.13
2023-03-30T03:48:08.515Z,95088.00
2023-03-30T03:50:36.442Z,95117.59
2023-03-30T03:53:04.912Z,95104.75
2023-03-30T03:55:34.906Z,95117.34
2023-03-30T03:58:02.839Z,95121.91
2023-03-30T04:00:31.294Z,95121.56
2023-03-30T04:03:00.016Z,95126.13
2023-03-30T04:05:29.331Z,95110.94
2023-03-30T04:07:57.710Z,95126.84
2023-03-30T04:10:25.717Z,95131.97
2023-03-30T04:12:56.185Z,95126.84
2023-03-30T04:15:24.520Z,95120.28
2023-03-30T04:17:58.075Z,95119.13
2023-03-30T04:20:27.014Z,95116.53
2023-03-30T04:22:57.097Z,95094.00
2023-03-30T04:25:26.836Z,95117.22
2023-03-30T04:27:55.161Z,95124.38
2023-03-30T04:30:23.589Z,95082.41
2023-03-30T04:33:02.614Z,95089.19
2023-03-30T04:35:32.273Z,95123.06
2023-03-30T04:38:02.212Z,95116.53
2023-03-30T04:40:30.508Z,95098.22
2023-03-30T04:43:02.459Z,95114.66
2023-03-30T04:45:31.109Z,95107.44
2023-03-30T04:47:59.367Z,95130.31
2023-03-30T04:50:33.612Z,95134.63
2023-03-30T04:53:02.866Z,95119.91
2023-03-30T04:55:30.750Z,95122.59
2023-03-30T04:57:58.614Z,95128.66
2023-03-30T05:00:27.483Z,95124.88
2023-03-30T05:02:57.262Z,95092.03
2023-03-30T05:05:25.317Z,95141.91
2023-03-30T05:07:54.145Z,95136.97
2023-03-30T05:10:23.427Z,95134.25
2023-03-30T05:12:51.499Z,95132.53
2023-03-30T05:15:19.423Z,95134.25
2023-03-30T05:17:47.835Z,95133.31
2023-03-30T05:20:16.042Z,95137.19
2023-03-30T05:22:44.339Z,95126.88
2023-03-30T05:25:12.283Z,95112.06
2023-03-30T05:27:41.594Z,95132.66
2023-03-30T05:30:10.500Z,95132.66
2023-03-30T05:32:38.427Z,95138.41
2023-03-30T05:35:07.776Z,95130.66
2023-03-30T05:37:36.012Z,95126.53
2023-03-30T05:40:07.487Z,95130.97
2023-03-30T05:42:35.627Z,95123.75
2023-03-30T05:45:05.626Z,95132.41
2023-03-30T05:47:35.638Z,95141.69
2023-03-30T05:50:03.698Z,95147.59
2023-03-30T05:52:31.666Z,95135.84
2023-03-30T05:54:59.555Z,95133.59
2023-03-30T05:57:27.519Z,95135.63
2023-03-30T05:59:55.373Z,95134.66
2023-03-30T06:02:24.687Z,95146.09
2023-03-30T06:04:53.530Z,95148.59
2023-03-30T06:07:21.839Z,95140.84
2023-03-30T06:09:49.916Z,95119.50
2023-03-30T06:12:17.909Z,95152.88
2023-03-30T06:14:45.787Z,95154.59
2023-03-30T06:17:15.999Z,95161.81
2023-03-30T06:19:45.545Z,95136.91
2023-03-30T06:22:13.447Z,95168.84
2023-03-30T06:24:41.493Z,95171.22
2023-03-30T06:27:10.853Z,95162.69
2023-03-30T06:29:38.773Z,95169.53
2023-03-30T06:32:07.445Z,95167.34
2023-03-30T06:34:35.465Z,95165.41
2023-03-30T06:37:04.791Z,95150.38
2023-03-30T06:39:33.433Z,95177.44
2023-03-30T06:42:01.440Z,95174.75
2023-03-30T06:44:29.387Z,95174.13
2023-03-30T06:46:57.428Z,95174.44
2023-03-30T06:49:25.416Z,95176.94
2023-03-30T06:51:53.339Z,95182.03
2023-03-30T06:54:22.877Z,95182.63
2023-03-30T06:56:52.899Z,95188.19
2023-03-30T06:59:21.099Z,95187.63
2023-03-30T07:01:49.060Z,95178.09
2023-03-30T07:04:17.458Z,95183.16
2023-03-30T07:06:45.553Z,95181.94
2023-03-30T07:09:14.014Z,95169.06
2023-03-30T07:11:43.292Z,95193.81
2023-03-30T07:14:12.656Z,95169.06
2023-03-30T07:16:40.827Z,95187.88
2023-03-30T07:19:08.989Z,95193.06
2023-03-30T07:21:37.071Z,95198.53
2023-03-30T07:24:05.347Z,95194.72
2023-03-30T07:26:33.315Z,95192.69
2023-03-30T07:29:02.652Z,95195.66
2023-03-30T07:31:30.732Z,95193.66
2023-03-30T07:33:59.077Z,95195.66
2023-03-30T07:36:27.096Z,95194.81
2023-03-30T07:38:55.152Z,95187.34
2023-03-30T07:41:23.449Z,95194.16
2023-03-30T07:43:53.053Z,95196.59
2023-03-30T07:46:22.477Z,95191.06
2023-03-30T07:48:52.847Z,95186.28
2023-03-30T07:51:22.319Z,95179.75
2023-03-30T07:53:52.056Z,95184.47
2023-03-30T07:56:20.031Z,95186.88
2023-03-30T07:58:48.358Z,95183.97
2023-03-30T08:01:16.555Z,95161.22
2023-03-30T08:03:48.367Z,95166.44
2023-03-30T08:06:16.465Z,95186.16
2023-03-30T08:08:44.631Z,95191.88
2023-03-30T08:11:15.364Z,95195.03
2023-03-30T08:13:44.548Z,95185.75
2023-03-30T08:16:12.725Z,95164.34
2023-03-30T08:18:41.718Z,95180.59
2023-03-30T08:21:12.266Z,95169.72
2023-03-30T08:23:40.166Z,95151.53
2023-03-30T08:26:08.345Z,95173.59
2023-03-30T08:28:36.622Z,95170.72
2023-03-30T08:31:06.208Z,95168.13
2023-03-30T08:33:34.943Z,95170.28
2023-03-30T08:36:03.068Z,95180.50
2023-03-30T08:38:32.994Z,95167.97
2023-03-30T08:41:01.385Z,95169.31
2023-03-30T08:43:43.473Z,95169.00
2023-03-30T08:46:18.697Z,95180.59
2023-03-30T08:48:48.086Z,95170.66
2023-03-30T08:51:24.829Z,95176.13
2023-03-30T08:53:58.001Z,95163.94
2023-03-30T08:56:30.941Z,95170.97
2023-03-30T08:59:14.664Z,95160.88
2023-03-30T09:01:48.843Z,95165.06
2023-03-30T09:04:24.841Z,95160.25
2023-03-30T09:06:54.986Z,95138.38
2023-03-30T09:09:32.843Z,95150.56
2023-03-30T09:12:06.682Z,95148.56
2023-03-30T09:14:39.939Z,95142.63
2023-03-30T09:17:13.312Z,95146.19
2023-03-30T09:19:50.466Z,95114.72
2023-03-30T09:22:23.166Z,95133.25
2023-03-30T09:24:53.815Z,95125.34
2023-03-30T09:27:29.232Z,95111.34
2023-03-30T09:30:06.654Z,95099.19
2023-03-30T09:32:41.927Z,95117.13
2023-03-30T09:35:15.987Z,95112.38
2023-03-30T09:37:43.959Z,95102.75
2023-03-30T09:40:27.759Z,95083.31
2023-03-30T09:43:02.849Z,95085.28
2023-03-30T09:45:34.444Z,95111.44
2023-03-30T09:48:05.591Z,95083.13
2023-03-30T09:50:40.010Z,95111.31
2023-03-30T09:53:18.504Z,95104.09
2023-03-30T09:55:59.552Z,95101.03
2023-03-30T09:58:30.185Z,95091.25
2023-03-30T10:01:08.246Z,95075.31
2023-03-30T10:03:37.276Z,95088.47
2023-03-30T10:06:08.587Z,95095.91
2023-03-30T10:08:43.644Z,95092.00
2023-03-30T10:11:13.791Z,95061.28
2023-03-30T10:13:44.279Z,95080.13
2023-03-30T10:16:24.275Z,95094.53
2023-03-30T10:18:55.671Z,95094.22
2023-03-30T10:21:27.227Z,95049.31
2023-03-30T10:24:08.181Z,95089.47
2023-03-30T10:26:39.339Z,95074.41
2023-03-30T10:29:11.040Z,95096.25
2023-03-30T10:31:44.258Z,95070.44
2023-03-30T10:34:18.484Z,95063.47
2023-03-30T10:36:51.381Z,95070.03
2023-03-30T10:39:25.695Z,95061.59
2023-03-30T10:41:57.923Z,95067.09
2023-03-30T10:44:32.014Z,95072.88
2023-03-30T10:47:18.112Z,95065.41
2023-03-30T10:49:55.299Z,95073.53
2023-03-30T10:52:31.093Z,95029.97
2023-03-30T10:55:08.319Z,95057.50
2023-03-30T10:57:46.392Z,95045.50
2023-03-30T11:00:26.074Z,95049.13
2023-03-30T11:03:01.787Z,95062.50
2023-03-30T11:05:33.078Z,95034.19
2023-03-30T11:08:04.560Z,95042.59
2023-03-30T11:10:35.968Z,95025.84
2023-03-30T11:13:08.153Z,95050.78
2023-03-30T11:15:42.068Z,95030.72
2023-03-30T11:18:18.853Z,95017.94
2023-03-30T11:20:52.382Z,95026.00
2023-03-30T11:23:28.814Z,95021.00
2023-03-30T11:26:03.624Z,95011.19
2023-03-30T11:28:54.092Z,95026.00
2023-03-30T11:31:48.127Z,95004.84
2023-03-30T11:34:23.513Z,94994.97
2023-03-30T11:37:01.391Z,94993.81
2023-03-30T11:39:33.947Z,94979.66
2023-03-30T11:42:17.374Z,94990.38
2023-03-30T11:44:46.741Z,94977.06
2023-03-30T11:47:32.563Z,94967.94
2023-03-30T11:50:14.910Z,94965.66
2023-03-30T11:52:51.620Z,94972.63
2023-03-30T11:55:41.152Z,94965.13
2023-03-30T11:58:17.856Z,94967.56
2023-03-30T12:01:01.324Z,94951.50
2023-03-30T12:03:43.050Z,94954.78
2023-03-30T12:06:29.193Z,94973.44
2023-03-30T12:09:07.273Z,94927.84
2023-03-30T12:11:41.448Z,94953.06
2023-03-30T12:14:30.452Z,94944.44
2023-03-30T12:17:06.392Z,94926.13
2023-03-30T12:19:55.514Z,94937.00
2023-03-30T12:22:29.009Z,94916.53
2023-03-30T12:25:05.314Z,94909.81
2023-03-30T12:27:37.079Z,94885.41
2023-03-30T12:30:24.639Z,94904.13
2023-03-30T12:33:11.958Z,94897.44
2023-03-30T12:35:58.750Z,94905.13
2023-03-30T12:38:33.433Z,94899.84
2023-03-30T12:41:18.437Z,94872.81
2023-03-30T12:44:16.033Z,94892.59
2023-03-30T12:46:59.405Z,94891.34
2023-03-30T12:49:38.478Z,94889.97
2023-03-30T12:52:14.027Z,94870.13
2023-03-30T12:55:11.148Z,94866.16
2023-03-30T12:57:52.259Z,94869.69
2023-03-30T13:00:37.969Z,94848.28
2023-03-30T13:03:40.257Z,94871.69
2023-03-30T13:06:22.149Z,94864.31
2023-03-30T13:08:55.962Z,94839.13
2023-03-30T13:11:24.823Z,94821.72
2023-03-30T13:13:58.168Z,94834.69
2023-03-30T13:17:02.871Z,94841.13
2023-03-30T13:19:43.696Z,94825.91
2023-03-30T13:22:31.455Z,94812.50
2023-03-30T13:25:03.844Z,94811.53
2023-03-30T13:27:35.153Z,94804.50
2023-03-30T13:30:06.504Z,94799.44
2023-03-30T13:33:12.732Z,94816.88
2023-03-30T13:35:53.790Z,94798.53
2023-03-30T13:38:37.753Z,94786.28
2023-03-30T13:41:19.114Z,94794.25
2023-03-30T13:44:11.182Z,94769.69
2023-03-30T13:46:48.704Z,94769.13
2023-03-30T13:49:37.348Z,94754.38
2023-03-30T13:52:11.062Z,94790.22
2023-03-30T13:54:43.604Z,94761.28
2023-03-30T13:57:13.781Z,94770.81
2023-03-30T13:59:47.761Z,94773.69
2023-03-30T14:02:19.087Z,94763.00
2023-03-30T14:04:49.168Z,94745.31
2023-03-30T14:07:19.677Z,94763.16
2023-03-30T14:10:13.748Z,94766.09
2023-03-30T14:12:42.844Z,94770.41
2023-03-30T14:15:19.054Z,94763.66
2023-03-30T14:17:55.430Z,94753.50
2023-03-30T14:20:46.773Z,94769.09
2023-03-30T14:23:19.306Z,94768.69
2023-03-30T14:25:48.606Z,94764.00
2023-03-30T14:28:20.777Z,94764.34
2023-03-30T14:30:53.954Z,94764.41
2023-03-30T14:33:23.962Z,94740.88
2023-03-30T14:35:54.284Z,94744.63
2023-03-30T14:38:24.957Z,94752.81
2023-03-30T14:40:55.578Z,94757.00
2023-03-30T14:43:25.897Z,94752.78
2023-03-30T14:45:54.756Z,94753.81
2023-03-30T14:48:27.148Z,94724.78
2023-03-30T14:50:55.124Z,94746.13
2023-03-30T14:53:26.116Z,94741.44
2023-03-30T14:55:58.702Z,94736.03
2023-03-30T14:58:29.059Z,94721.06
2023-03-30T15:00:59.855Z,94729.38
2023-03-30T15:03:33.823Z,94709.84
2023-03-30T15:06:04.052Z,94699.94
2023-03-30T15:08:34.715Z,94720.91
2023-03-30T15:11:09.222Z,94718.41
2023-03-30T15:13:40.571Z,94712.50
2023-03-30T15:16:09.358Z,94722.31
2023-03-30T15:18:38.002Z,94726.53
2023-03-30T15:21:06.489Z,94715.22
2023-03-30T15:23:37.808Z,94718.50
2023-03-30T15:26:09.125Z,94709.50
2023-03-30T15:28:44.277Z,94708.75
2023-03-30T15:31:14.202Z,94686.81
2023-03-30T15:33:44.969Z,94707.38
2023-03-30T15:36:15.097Z,94695.66
2023-03-30T15:38:48.638Z,94693.91
2023-03-30T15:41:19.772Z,94680.19
2023-03-30T15:43:56.761Z,94671.50
2023-03-30T15:46:25.404Z,94690.75
2023-03-30T15:48:54.985Z,94686.00
2023-03-30T15:51:27.882Z,94689.09
2023-03-30T15:54:00.491Z,94686.53
2023-03-30T15:56:36.006Z,94653.16
2023-03-30T15:59:04.181Z,94666.66
2023-03-30T16:01:48.926Z,94667.91
2023-03-30T16:04:18.727Z,94677.97
2023-03-30T16:06:47.497Z,94671.19
2023-03-30T16:09:16.045Z,94651.00
2023-03-30T16:11:46.554Z,94675.44
2023-03-30T16:14:18.156Z,94642.09
2023-03-30T16:16:46.141Z,94660.63
2023-03-30T16:19:16.099Z,94664.25
2023-03-30T16:21:45.411Z,94679.16
2023-03-30T16:24:13.966Z,94683.53
2023-03-30T16:26:42.175Z,94687.19
2023-03-30T16:29:19.684Z,94688.59
2023-03-30T16:31:47.753Z,94680.91
2023-03-30T16:34:15.662Z,94665.00
2023-03-30T16:36:48.125Z,94688.56
2023-03-30T16:39:19.390Z,94648.03
2023-03-30T16:41:47.431Z,94678.69
2023-03-30T16:44:17.156Z,94677.34
2023-03-30T16:46:45.505Z,94652.06
2023-03-30T16:49:15.310Z,94668.91
2023-03-30T16:51:43.960Z,94682.66
2023-03-30T16:54:27.108Z,94672.16
2023-03-30T16:56:59.166Z,94683.88
2023-03-30T16:59:30.682Z,94656.41
2023-03-30T17:01:59.380Z,94679.44
2023-03-30T17:04:27.674Z,94683.88
2023-03-30T17:06:55.925Z,94689.88
2023-03-30T17:09:24.493Z,94701.78
2023-03-30T17:11:52.482Z,94670.34
2023-03-30T17:14:23.350Z,94681.47
2023-03-30T17:16:52.810Z,94687.72
2023-03-30T17:19:20.747Z,94694.97
2023-03-30T17:21:48.741Z,94700.34
2023-03-30T17:24:17.027Z,94701.75
2023-03-30T17:26:45.174Z,94694.81
2023-03-30T17:29:13.185Z,94696.16
2023-03-30T17:31:45.692Z,94675.81
2023-03-30T17:34:15.828Z,94681.69
2023-03-30T17:36:43.976Z,94686.97
2023-03-30T17:39:15.336Z,94686.38
2023-03-30T17:41:43.227Z,94689.19
2023-03-30T17:44:11.364Z,94689.19
2023-03-30T17:46:39.514Z,94678.72
2023-03-30T17:49:18.226Z,94683.13
2023-03-30T17:51:46.248Z,94677.47
2023-03-30T17:54:14.786Z,94676.03
2023-03-30T17:56:42.709Z,94679.41
2023-03-30T17:59:11.727Z,94660.44
2023-03-30T18:01:40.154Z,94672.97
2023-03-30T18:04:08.387Z,94674.00
2023-03-30T18:06:37.866Z,94674.38
2023-03-30T18:09:10.883Z,94669.56
2023-03-30T18:11:38.824Z,94672.34
2023-03-30T18:14:06.786Z,94665.00
2023-03-30T18:16:35.509Z,94643.59
2023-03-30T18:19:03.619Z,94670.63
2023-03-30T18:21:31.531Z,94668.97
2023-03-30T18:24:03.082Z,94664.50
2023-03-30T18:26:32.307Z,94659.84
2023-03-30T18:29:00.173Z,94660.84
2023-03-30T18:31:28.140Z,94652.41
2023-03-30T18:33:56.118Z,94651.63
2023-03-30T18:36:24.478Z,94663.50
2023-03-30T18:38:52.482Z,94654.72
2023-03-30T18:41:21.974Z,94654.84
2023-03-30T18:43:49.964Z,94624.09
2023-03-30T18:46:18.060Z,94652.22
2023-03-30T18:48:46.097Z,94635.63
2023-03-30T18:51:15.594Z,94648.41
2023-03-30T18:53:43.611Z,94645.13
2023-03-30T18:56:13.847Z,94656.06
2023-03-30T18:58:43.232Z,94648.66
2023-03-30T19:01:13.334Z,94634.06
2023-03-30T19:03:42.136Z,94646.91
2023-03-30T19:06:13.777Z,94618.03
2023-03-30T19:08:43.558Z,94639.22
2023-03-30T19:11:15.711Z,94611.22
2023-03-30T19:13:47.142Z,94640.16
2023-03-30T19:16:16.684Z,94638.22
2023-03-30T19:18:44.605Z,94635.47
2023-03-30T19:21:16.661Z,94637.22
2023-03-30T19:23:44.867Z,94624.78
2023-03-30T19:26:14.128Z,94634.81
2023-03-30T19:28:42.107Z,94632.13
2023-03-30T19:31:15.759Z,94622.88
2023-03-30T19:33:44.063Z,94613.44
2023-03-30T19:36:12.026Z,94631.34
2023-03-30T19:38:39.974Z,94627.06
2023-03-30T19:41:08.072Z,94619.63
2023-03-30T19:43:36.621Z,94612.75
2023-03-30T19:46:05.037Z,94636.97
2023-03-30T19:48:34.379Z,94623.13
2023-03-30T19:51:02.318Z,94622.13
2023-03-30T19:53:30.341Z,94619.81
2023-03-30T19:55:58.241Z,94618.03
2023-03-30T19:58:26.474Z,94613.63
2023-03-30T20:00:55.569Z,94620.66
2023-03-30T20:03:23.821Z,94608.84
2023-03-30T20:05:53.400Z,94610.97
2023-03-30T20:08:24.789Z,94616.78
2023-03-30T20:10:53.920Z,94615.00
2023-03-30T20:13:24.112Z,94610.97
2023-03-30T20:15:55.931Z,94607.03
2023-03-30T20:18:24.170Z,94615.50
2023-03-30T20:20:53.830Z,94619.94
2023-03-30T20:23:21.962Z,94601.47
2023-03-30T20:25:52.624Z,94599.06
2023-03-30T20:28:20.603Z,94605.25
2023-03-30T20:30:48.536Z,94622.81
2023-03-30T20:33:16.571Z,94615.84
2023-03-30T20:35:44.583Z,94628.88
2023-03-30T20:38:13.952Z,94608.03
2023-03-30T20:40:41.961Z,94622.25
2023-03-30T20:43:10.853Z,94628.06
2023-03-30T20:45:46.317Z,94621.34
2023-03-30T20:48:26.191Z,94621.88
2023-03-30T20:50:55.608Z,94592.69
2023-03-30T20:53:25.528Z,94618.13
2023-03-30T20:55:53.507Z,94622.59
2023-03-30T20:58:23.460Z,94608.88
2023-03-30T21:00:52.147Z,94608.50
2023-03-30T21:03:20.385Z,94607.16
2023-03-30T21:05:50.186Z,94610.38
2023-03-30T21:08:18.157Z,94604.53
2023-03-30T21:10:49.572Z,94591.06
2023-03-30T21:13:17.773Z,94614.09
2023-03-30T21:15:45.748Z,94610.91
2023-03-30T21:18:14.650Z,94608.22
2023-03-30T21:20:42.734Z,94613.22
2023-03-30T21:23:11.413Z,94612.63
2023-03-30T21:25:42.681Z,94613.16
2023-03-30T21:28:13.681Z,94591.06
2023-03-30T21:30:48.892Z,94605.50
2023-03-30T21:33:17.524Z,94595.53
2023-03-30T21:35:50.089Z,94600.84
2023-03-30T21:38:19.199Z,94582.97
2023-03-30T21:41:01.306Z,94587.81
2023-03-30T21:43:32.811Z,94589.53
2023-03-30T21:46:03.004Z,94590.72
2023-03-30T21:48:32.605Z,94574.88
2023-03-30T21:51:01.806Z,94584.50
2023-03-30T21:53:30.942Z,94567.88
2023-03-30T21:55:59.328Z,94567.44
2023-03-30T21:58:27.802Z,94565.44
2023-03-30T22:01:08.860Z,94573.44
2023-03-30T22:03:39.354Z,94572.78
2023-03-30T22:06:09.578Z,94568.66
2023-03-30T22:08:37.760Z,94572.22
2023-03-30T22:11:07.422Z,94564.00
2023-03-30T22:13:35.733Z,94554.78
2023-03-30T22:16:08.018Z,94540.34
2023-03-30T22:18:36.270Z,94539.66
2023-03-30T22:21:08.071Z,94548.44
2023-03-30T22:23:36.252Z,94552.19
2023-03-30T22:26:04.327Z,94537.47
2023-03-30T22:28:32.385Z,94545.72
2023-03-30T22:31:00.289Z,94532.97
2023-03-30T22:33:30.045Z,94537.97
2023-03-30T22:35:59.945Z,94543.81
2023-03-30T22:38:28.066Z,94538.72
2023-03-30T22:41:05.538Z,94538.09
2023-03-30T22:43:35.816Z,94545.72
2023-03-30T22:46:04.233Z,94542.72
2023-03-30T22:48:34.017Z,94544.00
2023-03-30T22:51:03.337Z,94542.00
2023-03-30T22:53:32.030Z,94539.97
2023-03-30T22:56:00.045Z,94540.94
2023-03-30T22:58:28.439Z,94544.63
2023-03-30T23:01:01.185Z,94545.34
2023-03-30T23:03:29.327Z,94540.00
2023-03-30T23:06:01.153Z,94529.31
2023-03-30T23:08:30.695Z,94537.75
2023-03-30T23:11:04.214Z,94532.41
2023-03-30T23:13:32.536Z,94530.78
2023-03-30T23:16:01.552Z,94509.25
2023-03-30T23:18:29.552Z,94527.25
2023-03-30T23:20:59.037Z,94511.09
2023-03-30T23:23:27.062Z,94519.44
2023-03-30T23:25:54.982Z,94527.22
2023-03-30T23:28:22.939Z,94505.31
2023-03-30T23:30:50.860Z,94528.81
2023-03-30T23:33:18.806Z,94528.22
2023-03-30T23:35:50.971Z,94509.84
2023-03-30T23:38:20.987Z,94522.34
2023-03-30T23:40:48.877Z,94518.59
2023-03-30T23:43:16.742Z,94517.06
2023-03-30T23:45:44.657Z,94523.16
2023-03-30T23:48:12.533Z,94517.94
2023-03-30T23:50:41.250Z,94506.75
2023-03-30T23:53:09.453Z,94517.38
2023-03-30T23:55:38.781Z,94517.03
2023-03-30T23:58:06.728Z,94501.50
